Time;durP1;ratioP1;P1;durP2;ratioP2;P2;SDS_P1;SDS_P2;PMS_P1;PMS_P2;Temp;Humidity;BMP_temperature;BMP_pressure;BME280_temperature;BME280_humidity;BME280_pressure;Samples;Min_cycle;Max_cycle;Signal;HPM_P1;HPM_P2
2023/09/18 00:00:57;;;;;;;15.98;12.25;;;;;;;14.51;100.00;99118.19;4793772;29;20736;-81
2023/09/18 00:03:25;;;;;;;17.00;13.00;;;;;;;14.52;100.00;99119.84;4821432;29;20037;-81
2023/09/18 00:05:53;;;;;;;18.98;12.60;;;;;;;14.51;100.00;99118.19;4810909;29;20653;-80
2023/09/18 00:08:23;;;;;;;16.15;12.48;;;;;;;14.51;100.00;99111.03;4812928;29;20049;-80
2023/09/18 00:10:55;;;;;;;18.65;13.02;;;;;;;14.52;100.00;99112.66;4815732;29;20475;-79
2023/09/18 00:13:25;;;;;;;18.98;13.52;;;;;;;14.51;100.00;99115.53;4791083;29;20053;-80
2023/09/18 00:15:59;;;;;;;18.88;13.45;;;;;;;14.49;100.00;99113.06;4800290;29;20034;-79
2023/09/18 00:18:29;;;;;;;19.25;13.35;;;;;;;14.51;100.00;99115.53;4795111;29;20049;-81
2023/09/18 00:21:02;;;;;;;15.60;12.45;;;;;;;14.50;100.00;99112.06;4806151;29;20399;-82
2023/09/18 00:23:35;;;;;;;15.15;12.30;;;;;;;14.51;100.00;99119.00;4791493;29;20107;-82
2023/09/18 00:26:05;;;;;;;15.35;12.18;;;;;;;14.52;100.00;99104.69;4790101;29;20053;-82
2023/09/18 00:28:35;;;;;;;18.85;12.85;;;;;;;14.50;100.00;99105.91;4828394;29;20098;-80
2023/09/18 00:31:03;;;;;;;16.48;12.25;;;;;;;14.49;100.00;99107.75;4833872;29;20038;-80
2023/09/18 00:33:31;;;;;;;19.48;12.85;;;;;;;14.48;100.00;99102.63;4819957;29;20491;-79
2023/09/18 00:36:00;;;;;;;23.48;12.77;;;;;;;14.52;100.00;99112.66;4803704;29;20042;-80
2023/09/18 00:38:30;;;;;;;25.52;12.30;;;;;;;14.50;100.00;99105.91;4804051;29;20744;-81
2023/09/18 00:40:59;;;;;;;17.70;11.68;;;;;;;14.55;100.00;99102.66;4819905;29;20199;-82
2023/09/18 00:43:27;;;;;;;15.82;11.63;;;;;;;14.48;100.00;99100.81;4821439;29;20093;-81
2023/09/18 00:45:55;;;;;;;16.02;10.77;;;;;;;14.50;100.00;99101.44;4804221;29;20042;-78
2023/09/18 00:48:23;;;;;;;12.07;10.40;;;;;;;14.46;100.00;99094.06;4824878;29;20042;-79
2023/09/18 00:50:51;;;;;;;11.48;9.25;;;;;;;14.46;100.00;99089.53;4805474;29;20041;-79
2023/09/18 00:53:22;;;;;;;11.80;7.97;;;;;;;14.49;100.00;99083.81;4807359;29;20060;-81
2023/09/18 00:55:54;;;;;;;8.63;7.30;;;;;;;14.49;100.00;99081.16;4806572;29;20103;-78
2023/09/18 00:58:23;;;;;;;6.47;5.45;;;;;;;14.42;100.00;99071.53;4824949;29;20050;-84
2023/09/18 01:00:52;;;;;;;6.18;5.28;;;;;;;14.44;100.00;99069.50;4810809;29;20121;-82
2023/09/18 01:03:20;;;;;;;4.65;4.07;;;;;;;14.38;100.00;99076.47;4823157;29;20151;-78
2023/09/18 01:05:51;;;;;;;4.38;3.90;;;;;;;14.37;100.00;99080.13;4809225;29;20066;-84
2023/09/18 01:08:20;;;;;;;4.47;3.95;;;;;;;14.31;100.00;99079.13;4826918;29;20139;-89
2023/09/18 01:11:10;;;;;;;6.05;4.07;;;;;;;14.33;100.00;99079.75;4836062;29;20048;-86
2023/09/18 01:13:46;;;;;;;4.35;3.33;;;;;;;14.32;100.00;99072.78;4814022;29;20033;-89
2023/09/18 01:16:23;;;;;;;5.05;3.67;;;;;;;14.32;100.00;99074.59;4810235;29;20116;-86
2023/09/18 01:18:51;;;;;;;4.50;3.30;;;;;;;14.27;100.00;99068.06;4815822;29;20074;-86
2023/09/18 01:21:22;;;;;;;3.22;2.92;;;;;;;14.30;100.00;99063.38;4821423;29;20037;-85
2023/09/18 01:24:00;;;;;;;8.32;2.80;;;;;;;14.30;100.00;99058.06;4841033;29;20112;-88
2023/09/18 01:26:31;;;;;;;4.80;2.88;;;;;;;14.23;100.00;99055.38;4817585;29;20063;-86
2023/09/18 01:29:02;;;;;;;2.95;2.65;;;;;;;14.22;100.00;99043.13;4785439;29;20038;-86
2023/09/18 01:31:31;;;;;;;2.50;2.30;;;;;;;14.22;100.00;99051.91;4791709;29;20049;-86
2023/09/18 01:34:20;;;;;;;2.95;2.40;;;;;;;14.21;100.00;99052.94;4807742;29;20038;-87
2023/09/18 01:36:52;;;;;;;7.00;2.00;;;;;;;14.19;100.00;99051.50;4786506;29;20051;-88
2023/09/18 01:39:24;;;;;;;2.85;2.10;;;;;;;14.12;100.00;99048.84;4793579;29;20034;-86
2023/09/18 01:41:52;;;;;;;4.13;2.30;;;;;;;14.13;100.00;99053.13;4791387;29;20050;-85
2023/09/18 01:44:20;;;;;;;6.07;3.10;;;;;;;14.18;100.00;99053.34;4804163;29;20121;-76
2023/09/18 01:46:51;;;;;;;3.85;3.30;;;;;;;14.14;100.00;99046.81;4808189;29;20358;-87
2023/09/18 01:49:30;;;;;;;4.22;3.22;;;;;;;14.18;100.00;99058.66;4788169;29;20026;-87
2023/09/18 01:51:58;;;;;;;5.32;3.17;;;;;;;14.09;100.00;99052.72;4823700;29;20038;-86
2023/09/18 01:54:26;;;;;;;4.72;2.72;;;;;;;14.01;100.00;99052.91;4788741;29;20391;-86
2023/09/18 01:56:56;;;;;;;3.47;2.90;;;;;;;13.98;100.00;99051.47;4814434;29;20116;-88
2023/09/18 01:59:33;;;;;;;4.35;2.65;;;;;;;13.98;100.00;99045.34;4816990;29;20038;-87
2023/09/18 02:02:17;;;;;;;;;;;;;;;;;;;;;
2023/09/18 02:04:48;;;;;;;2.70;2.35;;;;;;;13.88;100.00;99043.06;4801023;29;19920;-86
2023/09/18 02:07:16;;;;;;;9.23;2.88;;;;;;;13.78;100.00;99043.44;4776509;29;20042;-87
2023/09/18 02:09:45;;;;;;;4.05;2.22;;;;;;;13.80;100.00;99041.41;4811347;29;20116;-86
2023/09/18 02:12:17;;;;;;;2.75;1.85;;;;;;;13.69;100.00;99039.34;4807185;29;20049;-84
2023/09/18 02:14:46;;;;;;;2.33;1.92;;;;;;;13.63;100.00;99047.06;4818789;29;20050;-86
2023/09/18 02:17:20;;;;;;;1.70;1.60;;;;;;;13.51;100.00;99030.91;4791866;29;20031;-85
2023/09/18 02:19:50;;;;;;;6.47;2.10;;;;;;;13.48;100.00;99041.91;4823621;29;20095;-90
2023/09/18 02:22:20;;;;;;;3.42;1.50;;;;;;;13.44;100.00;99043.28;4811872;29;20038;-88
2023/09/18 02:24:50;;;;;;;2.30;1.63;;;;;;;13.37;100.00;99045.94;4821409;29;20054;-87
2023/09/18 02:27:21;;;;;;;2.55;1.40;;;;;;;13.35;100.00;99037.34;4799740;29;20054;-88
2023/09/18 02:29:53;;;;;;;3.03;1.60;;;;;;;13.31;100.00;99027.31;4797609;29;20503;-86
2023/09/18 02:32:23;;;;;;;2.25;1.67;;;;;;;13.27;100.00;99034.84;4797896;29;20041;-86
2023/09/18 02:34:52;;;;;;;3.25;1.42;;;;;;;13.21;100.00;99033.00;4835639;29;20053;-88
2023/09/18 02:37:19;;;;;;;2.80;1.58;;;;;;;13.16;100.00;99036.25;4791974;29;20179;-90
2023/09/18 02:39:48;;;;;;;2.55;1.30;;;;;;;13.11;100.00;99028.03;4792480;29;20039;-89
2023/09/18 02:42:17;;;;;;;6.43;1.40;;;;;;;13.05;100.00;99018.22;4794472;29;20132;-87
2023/09/18 02:44:44;;;;;;;6.22;1.23;;;;;;;13.02;100.00;99014.13;4812058;29;20042;-89
2023/09/18 02:47:12;;;;;;;8.07;1.20;;;;;;;12.94;100.00;99022.25;4798039;29;20064;-89
2023/09/18 02:49:40;;;;;;;2.92;0.90;;;;;;;12.92;100.00;99018.94;4808353;29;20061;-86
2023/09/18 02:52:08;;;;;;;4.35;1.00;;;;;;;12.84;100.00;99017.28;4790971;29;20039;-87
2023/09/18 02:54:36;;;;;;;6.70;1.15;;;;;;;12.83;100.00;99013.81;4812958;29;20041;-90
2023/09/18 02:57:04;;;;;;;5.18;1.08;;;;;;;12.76;100.00;99011.13;4822601;29;20129;-88
2023/09/18 02:59:32;;;;;;;7.05;1.20;;;;;;;12.69;100.00;99007.63;4800842;29;20442;-88
2023/09/18 03:02:00;;;;;;;2.35;0.90;;;;;;;12.59;100.00;99004.47;4807930;29;20046;-89
2023/09/18 03:04:32;;;;;;;4.13;1.08;;;;;;;12.62;100.00;99007.56;4798353;29;20038;-88
2023/09/18 03:07:01;;;;;;;5.40;0.95;;;;;;;12.58;100.00;99003.66;4808569;29;20048;-91
2023/09/18 03:09:29;;;;;;;3.05;0.95;;;;;;;12.55;100.00;99003.25;4797885;29;20062;-89
2023/09/18 03:11:57;;;;;;;5.18;1.23;;;;;;;12.51;100.00;99003.63;4816335;29;20098;-90
2023/09/18 03:14:27;;;;;;;6.82;1.25;;;;;;;12.55;100.00;98997.94;4792598;29;20044;-89
2023/09/18 03:16:57;;;;;;;6.50;1.77;;;;;;;12.63;100.00;98995.94;4811868;29;20050;-89
2023/09/18 03:19:26;;;;;;;3.17;1.10;;;;;;;12.65;100.00;98990.44;4812325;29;20047;-90
2023/09/18 03:21:54;;;;;;;4.30;1.00;;;;;;;12.61;100.00;98989.22;4812674;29;20042;-90
2023/09/18 03:24:24;;;;;;;1.85;0.90;;;;;;;12.67;100.00;98996.38;4815286;29;20069;-90
2023/09/18 03:26:54;;;;;;;3.30;0.95;;;;;;;12.72;100.00;98986.03;4806798;29;20569;-90
2023/09/18 03:29:24;;;;;;;2.42;1.02;;;;;;;12.70;100.00;98980.09;4816393;29;20042;-90
2023/09/18 03:31:57;;;;;;;4.57;0.88;;;;;;;12.76;100.00;98989.09;4812511;29;20049;-87
2023/09/18 03:34:27;;;;;;;5.25;1.17;;;;;;;12.76;100.00;98991.75;4819776;29;20491;-90
2023/09/18 03:36:56;;;;;;;2.60;1.00;;;;;;;12.71;100.00;98983.56;4780023;29;20493;-90
2023/09/18 03:39:24;;;;;;;6.10;0.90;;;;;;;12.68;100.00;98979.47;4789639;29;20038;-90
2023/09/18 03:41:52;;;;;;;7.65;1.13;;;;;;;12.70;100.00;98979.25;4794567;29;20053;-90
2023/09/18 03:44:20;;;;;;;1.98;0.90;;;;;;;12.69;100.00;98985.59;4804497;29;20037;-83
2023/09/18 03:46:48;;;;;;;4.93;1.20;;;;;;;12.70;100.00;98977.44;4838915;29;20044;-81
2023/09/18 03:49:16;;;;;;;2.50;0.98;;;;;;;12.68;100.00;98976.81;4820741;29;20101;-83
2023/09/18 03:51:48;;;;;;;6.00;1.00;;;;;;;12.69;100.00;98970.50;4805644;29;20492;-82
2023/09/18 03:54:18;;;;;;;2.75;0.90;;;;;;;12.66;100.00;98973.56;4821917;29;20041;-84
2023/09/18 03:56:47;;;;;;;3.15;1.00;;;;;;;12.64;100.00;98972.91;4792805;29;20089;-83
2023/09/18 03:59:15;;;;;;;4.28;0.95;;;;;;;12.57;100.00;98969.38;4822815;29;20042;-82
2023/09/18 04:01:42;;;;;;;5.65;0.93;;;;;;;12.57;100.00;98962.28;4796454;29;20057;-83
2023/09/18 04:04:10;;;;;;;13.00;1.38;;;;;;;12.49;100.00;98962.41;4835590;29;20037;-83
2023/09/18 04:06:43;;;;;;;9.80;1.10;;;;;;;12.44;100.00;98955.03;4811687;29;20062;-82
2023/09/18 04:09:11;;;;;;;4.40;1.02;;;;;;;12.39;100.00;98957.47;4820101;29;20034;-83
2023/09/18 04:11:39;;;;;;;5.03;0.93;;;;;;;12.38;100.00;98951.34;4820977;29;20034;-83
2023/09/18 04:14:06;;;;;;;6.00;1.00;;;;;;;12.35;100.00;98957.03;4820777;29;20125;-82
2023/09/18 04:16:35;;;;;;;4.05;0.95;;;;;;;12.32;100.00;98951.28;4822819;29;20042;-83
2023/09/18 04:19:03;;;;;;;9.02;1.00;;;;;;;12.27;100.00;98947.41;4835378;29;20042;-85
2023/09/18 04:21:33;;;;;;;13.00;1.30;;;;;;;12.27;100.00;98949.22;4820559;29;20037;-84
2023/09/18 04:24:03;;;;;;;8.48;1.05;;;;;;;12.27;100.00;98947.41;4806842;29;20107;-83
2023/09/18 04:26:33;;;;;;;2.53;0.90;;;;;;;12.26;100.00;98943.09;4787162;29;20054;-83
2023/09/18 04:29:03;;;;;;;4.03;1.10;;;;;;;12.26;100.00;98948.41;4798531;29;20433;-83
2023/09/18 04:31:32;;;;;;;2.80;0.93;;;;;;;12.24;100.00;98949.59;4792663;29;20046;-84
2023/09/18 04:34:02;;;;;;;3.22;1.00;;;;;;;12.21;100.00;98950.00;4793258;29;20081;-83
2023/09/18 04:36:31;;;;;;;2.53;1.00;;;;;;;12.21;100.00;98955.28;4795409;29;20110;-82
2023/09/18 04:38:59;;;;;;;2.10;0.98;;;;;;;12.16;100.00;98947.91;4815993;29;20049;-81
2023/09/18 04:41:27;;;;;;;4.82;0.90;;;;;;;12.17;100.00;98949.56;4804431;29;20395;-82
2023/09/18 04:43:56;;;;;;;6.47;0.85;;;;;;;12.17;100.00;98954.06;4797296;29;20388;-80
2023/09/18 04:46:25;;;;;;;5.70;0.93;;;;;;;12.21;100.00;98950.81;4802910;29;20046;-81
2023/09/18 04:48:53;;;;;;;3.88;0.70;;;;;;;12.20;100.00;98943.88;4801483;29;20376;-81
2023/09/18 04:51:20;;;;;;;7.78;0.90;;;;;;;12.21;100.00;98945.53;4799192;29;20053;-80
2023/09/18 04:53:48;;;;;;;5.95;1.00;;;;;;;12.20;100.00;98945.72;4799087;29;20038;-81
2023/09/18 04:56:16;;;;;;;4.30;0.70;;;;;;;12.22;100.00;98941.03;4785765;29;20034;-81
2023/09/18 04:58:43;;;;;;;9.95;1.50;;;;;;;12.25;100.00;98938.00;4816075;29;20526;-80
2023/09/18 05:01:12;;;;;;;4.15;0.90;;;;;;;12.31;100.00;98942.50;4790691;29;20484;-81
2023/09/18 05:03:40;;;;;;;9.43;0.80;;;;;;;12.35;100.00;98953.56;4783349;29;20042;-82
2023/09/18 05:06:08;;;;;;;5.63;1.15;;;;;;;12.37;100.00;98955.03;4800049;29;20034;-83
2023/09/18 05:08:36;;;;;;;5.18;0.68;;;;;;;12.33;100.00;98951.09;4805194;29;20122;-80
2023/09/18 05:11:06;;;;;;;7.00;1.10;;;;;;;12.34;100.00;98957.22;4807508;29;20054;-79
2023/09/18 05:13:36;;;;;;;4.88;1.02;;;;;;;12.31;100.00;98958.41;4812784;29;20047;-79
2023/09/18 05:16:05;;;;;;;6.10;1.10;;;;;;;12.27;100.00;98958.00;4798626;29;20042;-79
2023/09/18 05:18:36;;;;;;;6.28;0.80;;;;;;;12.26;100.00;98956.34;4800575;29;20121;-79
2023/09/18 05:21:06;;;;;;;7.03;0.65;;;;;;;12.27;100.00;98962.47;4816952;29;20042;-80
2023/09/18 05:23:34;;;;;;;6.60;1.30;;;;;;;12.26;100.00;98955.53;4787640;29;20042;-80
2023/09/18 05:26:03;;;;;;;2.20;0.63;;;;;;;12.21;100.00;98961.41;4804220;29;20058;-80
2023/09/18 05:28:31;;;;;;;3.45;0.90;;;;;;;12.20;100.00;98956.31;4784604;29;20129;-80
2023/09/18 05:31:00;;;;;;;3.83;0.73;;;;;;;12.20;100.00;98965.06;4788045;29;20038;-80
2023/09/18 05:33:30;;;;;;;1.60;0.38;;;;;;;12.20;100.00;98966.91;4789067;29;20046;-80
2023/09/18 05:35:58;;;;;;;0.73;0.40;;;;;;;12.17;100.00;98965.44;4788752;29;20111;-79
2023/09/18 05:38:26;;;;;;;1.63;0.32;;;;;;;12.11;100.00;98977.63;4777743;29;20038;-78
2023/09/18 05:40:54;;;;;;;0.30;0.28;;;;;;;12.11;100.00;98979.44;4801177;29;20057;-79
2023/09/18 05:43:22;;;;;;;1.60;0.32;;;;;;;12.04;100.00;98969.59;4804860;29;20945;-79
2023/09/18 05:45:50;;;;;;;2.63;0.35;;;;;;;12.03;100.00;98969.78;4793659;29;20514;-80
2023/09/18 05:48:17;;;;;;;1.55;0.30;;;;;;;11.95;100.00;98976.03;4792117;29;20034;-79
2023/09/18 05:50:47;;;;;;;0.70;0.17;;;;;;;11.97;100.00;98981.97;4807351;29;20109;-78
2023/09/18 05:53:16;;;;;;;3.80;0.30;;;;;;;11.95;100.00;98970.72;4790013;29;20046;-79
2023/09/18 05:55:44;;;;;;;6.50;0.40;;;;;;;11.89;100.00;98976.78;4823770;29;20069;-79
2023/09/18 05:58:13;;;;;;;4.93;0.57;;;;;;;11.88;100.00;98980.47;4791065;29;20484;-81
2023/09/18 06:00:41;;;;;;;2.92;0.30;;;;;;;11.81;100.00;98982.22;4790384;29;20081;-79
2023/09/18 06:03:12;;;;;;;3.25;0.47;;;;;;;11.81;100.00;98976.91;4805167;29;20456;-79
2023/09/18 06:05:39;;;;;;;3.83;0.47;;;;;;;11.76;100.00;98974.84;4803133;29;20094;-80
2023/09/18 06:08:09;;;;;;;4.40;0.50;;;;;;;11.75;100.00;98976.66;4830907;29;20104;-79
2023/09/18 06:10:38;;;;;;;18.90;1.30;;;;;;;11.75;100.00;98975.84;4792522;29;20041;-79
2023/09/18 06:13:06;;;;;;;6.68;1.27;;;;;;;11.72;100.00;98981.53;4801670;29;20038;-80
2023/09/18 06:15:36;;;;;;;5.38;0.65;;;;;;;11.65;100.00;98982.28;4835436;29;20046;-79
2023/09/18 06:18:06;;;;;;;5.53;0.50;;;;;;;11.68;100.00;98988.19;4805954;29;20050;-79
2023/09/18 06:20:34;;;;;;;6.43;0.88;;;;;;;11.66;100.00;98993.66;4792423;29;20043;-78
2023/09/18 06:23:04;;;;;;;6.95;0.80;;;;;;;11.57;100.00;98992.97;4820827;29;20034;-78
2023/09/18 06:25:33;;;;;;;6.43;1.23;;;;;;;11.63;100.00;98999.31;4788218;29;20085;-80
2023/09/18 06:28:03;;;;;;;5.15;1.02;;;;;;;11.64;100.00;98996.50;4784071;29;20046;-79
2023/09/18 06:30:32;;;;;;;6.47;1.10;;;;;;;11.63;100.00;99005.44;4802988;29;20513;-80
2023/09/18 06:33:02;;;;;;;7.15;0.73;;;;;;;11.58;100.00;98999.88;4805561;29;20073;-82
2023/09/18 06:35:30;;;;;;;10.43;1.02;;;;;;;11.60;100.00;99008.47;4787206;29;20051;-80
2023/09/18 06:38:00;;;;;;;5.80;1.23;;;;;;;11.62;100.00;99005.63;4802464;29;20062;-80
2023/09/18 06:40:28;;;;;;;10.55;1.20;;;;;;;11.61;100.00;99014.59;4771339;29;20045;-79
2023/09/18 06:43:00;;;;;;;10.93;1.35;;;;;;;11.65;100.00;99015.84;4802143;29;20109;-79
2023/09/18 06:45:29;;;;;;;11.27;1.30;;;;;;;11.64;100.00;99014.22;4805057;29;20785;-81
2023/09/18 06:47:57;;;;;;;12.68;1.40;;;;;;;11.59;100.00;99022.72;4818268;29;20510;-80
2023/09/18 06:50:24;;;;;;;12.57;1.67;;;;;;;11.60;100.00;99020.88;4791338;29;20038;-79
2023/09/18 06:52:52;;;;;;;8.18;1.00;;;;;;;11.56;100.00;99023.09;4816897;29;20041;-79
2023/09/18 06:55:20;;;;;;;8.65;1.30;;;;;;;11.56;100.00;99022.25;4800667;29;20487;-79
2023/09/18 06:57:48;;;;;;;10.48;2.13;;;;;;;11.55;100.00;99037.31;4789432;29;20488;-79
2023/09/18 07:00:20;;;;;;;8.90;1.02;;;;;;;11.60;100.00;99042.03;4792715;29;20103;-78
2023/09/18 07:02:49;;;;;;;12.30;1.27;;;;;;;11.58;100.00;99049.38;4799907;29;20035;-79
2023/09/18 07:05:19;;;;;;;7.80;1.00;;;;;;;11.68;100.00;99055.19;4786238;29;20030;-78
2023/09/18 07:07:49;;;;;;;4.20;1.05;;;;;;;11.72;100.00;99047.69;4793497;29;20047;-80
2023/09/18 07:10:19;;;;;;;9.88;1.00;;;;;;;11.81;100.00;99057.16;4783987;29;20129;-79
2023/09/18 07:12:47;;;;;;;10.57;1.40;;;;;;;11.88;100.00;99050.09;4805720;29;20098;-79
2023/09/18 07:15:15;;;;;;;6.18;1.10;;;;;;;11.97;100.00;99049.97;4813382;29;20496;-80
2023/09/18 07:17:45;;;;;;;8.02;0.90;;;;;;;12.04;100.00;99054.34;4815818;29;20054;-79
2023/09/18 07:20:13;;;;;;;3.30;0.60;;;;;;;12.10;100.00;99054.63;4784969;29;20039;-79
2023/09/18 07:22:47;;;;;;;5.90;1.00;;;;;;;12.11;100.00;99045.66;4804446;29;20054;-78
2023/09/18 07:25:16;;;;;;;9.00;1.27;;;;;;;12.20;100.00;99051.69;4804449;29;20034;-79
2023/09/18 07:27:45;;;;;;;13.40;1.25;;;;;;;12.12;100.00;99053.41;4804711;29;20054;-80
2023/09/18 07:30:19;;;;;;;9.98;1.65;;;;;;;12.12;100.00;99050.78;4787337;29;20045;-78
2023/09/18 07:32:47;;;;;;;17.95;1.98;;;;;;;12.10;100.00;99054.63;4802117;29;20049;-79
2023/09/18 07:35:15;;;;;;;12.48;1.88;;;;;;;12.14;100.00;99071.78;4813293;29;20056;-79
2023/09/18 07:37:45;;;;;;;8.60;1.95;;;;;;;12.15;100.00;99079.53;4802541;29;20589;-80
2023/09/18 07:40:16;;;;;;;15.00;1.33;;;;;;;12.17;100.00;99076.69;4802570;29;20045;-80
2023/09/18 07:42:44;;;;;;;10.32;1.27;;;;;;;12.21;100.00;99072.69;4786619;29;20054;-80
2023/09/18 07:45:13;;;;;;;12.52;1.30;;;;;;;12.31;100.00;99074.97;4789426;29;20038;-80
2023/09/18 07:47:41;;;;;;;9.38;1.73;;;;;;;12.39;100.00;99064.25;4772530;29;20035;-80
2023/09/18 07:50:08;;;;;;;5.35;1.15;;;;;;;12.45;100.00;99069.81;4803254;29;20137;-79
2023/09/18 07:52:37;;;;;;;9.70;1.65;;;;;;;12.49;100.00;99065.75;4802837;29;20080;-78
2023/09/18 07:55:06;;;;;;;12.90;1.63;;;;;;;12.44;100.00;99070.84;4815798;29;20505;-79
2023/09/18 07:57:35;;;;;;;14.32;1.60;;;;;;;12.38;100.00;99075.88;4818930;29;20052;-79
2023/09/18 08:00:12;;;;;;;11.02;2.58;;;;;;;12.30;100.00;99069.88;4818756;29;20134;-81
2023/09/18 08:02:42;;;;;;;10.02;1.40;;;;;;;12.30;100.00;99068.06;4803612;29;20042;-79
2023/09/18 08:05:12;;;;;;;10.48;1.52;;;;;;;12.25;100.00;99060.69;4805283;29;20079;-78
2023/09/18 08:07:41;;;;;;;11.63;1.67;;;;;;;12.22;100.00;99058.41;4790622;29;20050;-79
2023/09/18 08:10:12;;;;;;;17.65;1.67;;;;;;;12.24;100.00;99058.22;4783672;29;20037;-78
2023/09/18 08:12:40;;;;;;;10.30;2.13;;;;;;;12.23;100.00;99049.44;4793581;29;20436;-80
2023/09/18 08:15:08;;;;;;;11.65;1.90;;;;;;;12.26;100.00;99037.66;4791095;29;20064;-79
2023/09/18 08:17:36;;;;;;;10.07;1.40;;;;;;;12.29;100.00;99037.28;4774493;29;20061;-80
2023/09/18 08:20:11;;;;;;;14.13;2.10;;;;;;;12.33;100.00;99045.66;4804428;29;20050;-78
2023/09/18 08:22:48;;;;;;;13.65;1.98;;;;;;;12.34;100.00;99034.06;5156394;27;20146;-81
2023/09/18 08:25:17;;;;;;;7.63;1.55;;;;;;;12.32;100.00;99044.03;5103868;27;20031;-81
2023/09/18 08:27:44;;;;;;;16.55;1.90;;;;;;;12.31;100.00;99059.09;5123327;27;20163;-80
2023/09/18 08:30:13;;;;;;;13.75;2.25;;;;;;;12.36;100.00;99077.91;5127308;27;20113;-80
2023/09/18 08:32:43;;;;;;;15.10;1.98;;;;;;;12.36;100.00;99075.25;5125795;27;20713;-80
2023/09/18 08:35:10;;;;;;;11.95;2.10;;;;;;;12.39;100.00;99074.06;5128155;27;20547;-79
2023/09/18 08:37:38;;;;;;;16.33;2.30;;;;;;;12.40;100.00;99073.88;5108654;27;20043;-79
2023/09/18 08:40:09;;;;;;;17.95;2.47;;;;;;;12.49;100.00;99073.72;5108110;27;20062;-78
2023/09/18 08:42:40;;;;;;;15.57;2.13;;;;;;;12.49;100.00;99071.06;5107161;27;20088;-80
2023/09/18 08:45:10;;;;;;;15.13;2.08;;;;;;;12.49;100.00;99081.66;5129770;27;20058;-78
2023/09/18 08:47:41;;;;;;;17.20;2.38;;;;;;;12.48;100.00;99072.91;5134130;27;20035;-79
2023/09/18 08:50:12;;;;;;;15.68;2.42;;;;;;;12.50;100.00;99070.88;5117215;27;20130;-80
2023/09/18 08:52:41;;;;;;;15.38;2.75;;;;;;;12.51;100.00;99069.06;5116472;27;20096;-80
2023/09/18 08:55:10;;;;;;;21.50;2.83;;;;;;;12.50;100.00;99072.72;5129106;27;20033;-79
2023/09/18 08:57:39;;;;;;;17.20;1.70;;;;;;;12.52;100.00;99074.16;5140373;27;20087;-81
2023/09/18 09:00:11;;;;;;;11.77;2.80;;;;;;;12.54;100.00;99071.31;5123013;27;20027;-79
2023/09/18 09:02:39;;;;;;;15.77;2.53;;;;;;;12.56;100.00;99069.31;5127533;27;20105;-80
2023/09/18 09:05:07;;;;;;;9.63;1.65;;;;;;;12.49;100.00;99069.25;5104317;27;20027;-81
2023/09/18 09:07:36;;;;;;;16.35;3.00;;;;;;;12.52;100.00;99074.16;5144331;27;20182;-80
2023/09/18 09:10:05;;;;;;;13.02;2.47;;;;;;;12.55;100.00;99080.09;5127519;27;20035;-80
2023/09/18 09:12:57;;;;;;;19.60;3.28;;;;;;;12.60;100.00;99075.84;5148236;27;20038;-79
2023/09/18 09:15:27;;;;;;;13.57;2.90;;;;;;;12.59;100.00;99076.88;5126291;28;20436;-79
2023/09/18 09:18:08;;;;;;;16.63;2.67;;;;;;;12.68;100.00;99069.59;5128358;27;20035;-80
2023/09/18 09:20:39;;;;;;;14.48;2.30;;;;;;;12.74;100.00;99066.16;5110752;27;20095;-79
2023/09/18 09:23:09;;;;;;;15.50;2.75;;;;;;;12.82;100.00;99081.09;5138798;27;20031;-78
2023/09/18 09:25:37;;;;;;;18.77;2.83;;;;;;;12.84;100.00;99081.75;5103690;27;20083;-79
2023/09/18 09:28:07;;;;;;;14.45;3.10;;;;;;;12.91;100.00;99073.84;5128487;27;20031;-78
2023/09/18 09:30:36;;;;;;;15.65;2.67;;;;;;;12.98;100.00;99085.31;5118892;27;20487;-77
2023/09/18 09:33:05;;;;;;;15.15;2.42;;;;;;;12.97;100.00;99082.84;5118536;27;20074;-80
2023/09/18 09:35:36;;;;;;;16.40;2.28;;;;;;;13.07;100.00;99093.94;5095946;28;20369;-76
2023/09/18 09:38:11;;;;;;;12.40;2.40;;;;;;;13.24;100.00;99091.81;5093052;27;20062;-76
2023/09/18 09:40:42;;;;;;;10.30;2.55;;;;;;;13.32;100.00;99100.59;5098640;27;20043;-78
2023/09/18 09:43:15;;;;;;;13.95;2.22;;;;;;;13.31;100.00;99094.50;5113884;27;20119;-77
2023/09/18 09:45:46;;;;;;;13.40;2.40;;;;;;;13.31;100.00;99097.16;5089479;27;20028;-77
2023/09/18 09:48:16;;;;;;;13.48;2.58;;;;;;;13.37;100.00;99093.72;5104473;28;20031;-78
2023/09/18 09:50:48;;;;;;;12.98;2.83;;;;;;;13.37;100.00;99092.88;5127428;27;20073;-78
2023/09/18 09:53:18;;;;;;;11.10;2.00;;;;;;;13.36;100.00;99083.28;5095972;28;20027;-79
2023/09/18 09:55:45;;;;;;;8.57;1.95;;;;;;;13.42;100.00;99090.47;5110606;27;20027;-79
2023/09/18 09:58:14;;;;;;;13.98;2.33;;;;;;;13.50;100.00;99081.50;5111375;28;20038;-78
2023/09/18 10:00:49;;;;;;;15.15;2.05;;;;;;;13.59;100.00;99084.84;5124961;27;20023;-77
2023/09/18 10:03:20;;;;;;;12.60;1.98;;;;;;;13.62;100.00;99087.09;5124898;27;20246;-78
2023/09/18 10:05:51;;;;;;;9.77;1.60;;;;;;;13.60;100.00;99084.63;5111633;27;20039;-77
2023/09/18 10:08:26;;;;;;;4.72;1.23;;;;;;;13.52;100.00;99084.84;5114074;27;20042;-78
2023/09/18 10:11:00;;;;;;;9.57;2.08;;;;;;;13.51;100.00;99091.97;5129419;27;20447;-78
2023/09/18 10:13:49;;;;;;;4.50;1.13;;;;;;;13.57;100.00;99092.19;5117954;27;20122;-77
2023/09/18 10:16:25;;;;;;;9.10;1.75;;;;;;;13.60;100.00;99086.50;5121416;27;20027;-78
2023/09/18 10:19:06;;;;;;;8.57;1.10;;;;;;;13.62;100.00;99085.28;5109089;27;20056;-77
2023/09/18 10:21:38;;;;;;;7.45;1.08;;;;;;;13.63;100.00;99084.25;5103284;27;20108;-77
2023/09/18 10:24:19;;;;;;;5.95;0.90;;;;;;;13.67;100.00;99087.31;5124167;27;20043;-78
2023/09/18 10:27:03;;;;;;;7.28;1.17;;;;;;;13.72;100.00;99089.38;5123963;27;20035;-79
2023/09/18 10:29:34;;;;;;;5.30;1.35;;;;;;;13.75;100.00;99079.19;5116856;27;20035;-79
2023/09/18 10:32:05;;;;;;;6.63;1.10;;;;;;;13.85;100.00;99088.63;5092983;27;20035;-78
2023/09/18 10:34:34;;;;;;;6.95;1.60;;;;;;;13.93;100.00;99096.41;5127652;27;20149;-77
2023/09/18 10:37:07;;;;;;;3.80;1.10;;;;;;;13.84;100.00;99097.63;5107759;27;20031;-78
2023/09/18 10:39:41;;;;;;;7.25;0.95;;;;;;;13.84;100.00;99097.63;5115730;27;20046;-78
2023/09/18 10:42:10;;;;;;;6.30;1.55;;;;;;;13.85;100.00;99101.91;5106172;27;20081;-79
2023/09/18 10:44:41;;;;;;;5.82;1.00;;;;;;;13.87;100.00;99099.88;5128167;27;20270;-78
2023/09/18 10:47:12;;;;;;;9.73;1.42;;;;;;;13.93;100.00;99098.25;5094367;27;20028;-79
2023/09/18 10:49:41;;;;;;;5.38;1.00;;;;;;;14.00;100.00;99094.59;5102188;27;20034;-77
2023/09/18 10:52:16;;;;;;;10.40;1.25;;;;;;;14.07;100.00;99101.75;5088122;28;20035;-78
2023/09/18 10:54:47;;;;;;;7.07;1.42;;;;;;;14.02;100.00;99092.56;5095735;28;20046;-78
2023/09/18 10:57:15;;;;;;;6.95;1.52;;;;;;;14.00;100.00;99104.38;5066257;28;20578;-78
2023/09/18 10:59:45;;;;;;;10.07;1.55;;;;;;;13.96;100.00;99105.81;5078200;28;20475;-78
2023/09/18 11:02:17;;;;;;;5.10;1.40;;;;;;;13.95;100.00;99099.66;5071987;28;20109;-78
2023/09/18 11:04:47;;;;;;;8.20;1.88;;;;;;;13.92;100.00;99097.41;5099858;28;20028;-78
2023/09/18 11:07:27;;;;;;;12.88;1.42;;;;;;;13.98;100.00;99099.28;5084224;28;20039;-78
2023/09/18 11:09:56;;;;;;;9.70;1.77;;;;;;;13.97;100.00;99108.28;5109059;28;20032;-78
2023/09/18 11:12:44;;;;;;;6.88;1.23;;;;;;;13.86;100.00;99106.19;5095586;28;20035;-79
2023/09/18 11:15:32;;;;;;;6.18;1.23;;;;;;;13.87;100.00;99108.63;5081203;28;20092;-79
2023/09/18 11:18:05;;;;;;;5.13;1.27;;;;;;;13.86;100.00;99104.34;5085455;28;20523;-78
2023/09/18 11:20:33;;;;;;;14.07;1.60;;;;;;;13.93;100.00;99112.34;5098880;28;20027;-78
2023/09/18 11:23:17;;;;;;;12.38;1.85;;;;;;;14.02;100.00;99103.19;5084159;28;20062;-79
2023/09/18 11:25:45;;;;;;;8.68;1.15;;;;;;;14.08;100.00;99095.44;5080675;28;20039;-78
2023/09/18 11:28:17;;;;;;;8.73;1.15;;;;;;;14.27;100.00;99097.31;5087786;28;20056;-79
2023/09/18 11:31:02;;;;;;;4.22;0.90;;;;;;;14.24;100.00;99088.91;5083169;28;20032;-79
2023/09/18 11:33:40;;;;;;;4.90;0.90;;;;;;;14.19;100.00;99089.50;5084309;28;20035;-77
2023/09/18 11:36:18;;;;;;;3.90;0.95;;;;;;;14.24;100.00;99088.91;5099922;28;20041;-78
2023/09/18 11:39:04;;;;;;;7.75;1.10;;;;;;;14.25;100.00;99101.19;5081803;28;20477;-77